DLONG ROYN-RJAA
Flight info
| Callsign | DLONG |
|---|---|
| Flight time | N/A |
| Altitude | 37000 |
| Route | AYAKA DCT KAORU Y26 SEPIA YACKL Z27 IMPAL Y755 CARDS/N0453F380 ELMIR/N0425F370 Y23 ARTIC Y71 XAC PQD BINKS |
| Aircraft | A320/M-SDE3FGHIRWY/LB1 |
Departure
| Time | 2026-04-25 13:18 |
|---|---|
| Airport | Yonaguni Airport (ROYN) |
Arrival
| Time | N/A |
|---|---|
| Airport | Narita International Airport (RJAA) |
| Time | Latitude | Longitude | Altitude | Speed | Heading |
|---|---|---|---|---|---|
| 2026-04-25 12:55 | 24.46571 | 122.97952 | 64 ft | 0 kts | 184° |
| 2026-04-25 13:08 | 24.46580 | 122.97953 | 59 ft | 4 kts | 184° |
| 2026-04-25 13:08 | 24.46607 | 122.97955 | 60 ft | 4 kts | 182° |
| 2026-04-25 13:09 | 24.46634 | 122.97955 | 60 ft | 4 kts | 175° |
| 2026-04-25 13:09 | 24.46661 | 122.97950 | 63 ft | 4 kts | 167° |
| 2026-04-25 13:09 | 24.46686 | 122.97942 | 63 ft | 4 kts | 161° |
| 2026-04-25 13:09 | 24.46697 | 122.97938 | 62 ft | 0 kts | 159° |
| 2026-04-25 13:10 | 24.46718 | 122.97928 | 59 ft | 3 kts | 156° |
| 2026-04-25 13:10 | 24.46725 | 122.97925 | 57 ft | 0 kts | 156° |
| 2026-04-25 13:13 | 24.46722 | 122.97921 | 57 ft | 1 kts | 204° |
| 2026-04-25 13:13 | 24.46720 | 122.97906 | 51 ft | 6 kts | 253° |
| 2026-04-25 13:14 | 24.46700 | 122.97827 | 58 ft | 15 kts | 255° |
| 2026-04-25 13:14 | 24.46675 | 122.97724 | 64 ft | 13 kts | 256° |
| 2026-04-25 13:14 | 24.46654 | 122.97634 | 61 ft | 10 kts | 255° |
| 2026-04-25 13:14 | 24.46635 | 122.97551 | 67 ft | 13 kts | 255° |
| 2026-04-25 13:15 | 24.46615 | 122.97468 | 72 ft | 10 kts | 256° |
| 2026-04-25 13:15 | 24.46599 | 122.97399 | 65 ft | 10 kts | 255° |
| 2026-04-25 13:15 | 24.46576 | 122.97302 | 73 ft | 16 kts | 256° |
| 2026-04-25 13:15 | 24.46545 | 122.97173 | 84 ft | 17 kts | 255° |
| 2026-04-25 13:16 | 24.46534 | 122.97069 | 83 ft | 5 kts | 263° |
| 2026-04-25 13:16 | 24.46526 | 122.97067 | 88 ft | 1 kts | 180° |
| 2026-04-25 13:16 | 24.46521 | 122.97097 | 85 ft | 9 kts | 87° |
| 2026-04-25 13:16 | 24.46534 | 122.97141 | 85 ft | 0 kts | 74° |
| 2026-04-25 13:17 | 24.46597 | 122.97389 | 67 ft | 74 kts | 75° |
| 2026-04-25 13:18 | 24.46789 | 122.98181 | 58 ft | 137 kts | 75° |
| 2026-04-25 13:18 | 24.47068 | 122.99323 | 390 ft | 157 kts | 72° |
| 2026-04-25 13:18 | 24.47301 | 123.00460 | 1201 ft | 153 kts | 83° |
| 2026-04-25 13:18 | 24.47246 | 123.01634 | 1948 ft | 159 kts | 94° |
| 2026-04-25 13:19 | 24.47080 | 123.02911 | 2236 ft | 179 kts | 98° |
| 2026-04-25 13:19 | 24.46874 | 123.04355 | 2419 ft | 207 kts | 98° |
| 2026-04-25 13:19 | 24.46654 | 123.06021 | 2706 ft | 233 kts | 97° |
| 2026-04-25 13:19 | 24.46575 | 123.06626 | 2847 ft | 241 kts | 97° |
| 2026-04-25 13:20 | 24.46163 | 123.09826 | 3990 ft | 260 kts | 98° |
| 2026-04-25 13:20 | 24.45914 | 123.11835 | 4785 ft | 269 kts | 99° |
| 2026-04-25 13:20 | 24.45675 | 123.13904 | 5560 ft | 277 kts | 99° |
| 2026-04-25 13:20 | 24.45436 | 123.16020 | 6403 ft | 282 kts | 99° |
| 2026-04-25 13:21 | 24.45192 | 123.18167 | 7251 ft | 286 kts | 98° |
| 2026-04-25 13:21 | 24.44942 | 123.20357 | 8053 ft | 292 kts | 99° |
| 2026-04-25 13:21 | 24.44692 | 123.22590 | 8883 ft | 298 kts | 99° |
| 2026-04-25 13:21 | 24.44425 | 123.24867 | 9687 ft | 303 kts | 99° |
| 2026-04-25 13:22 | 24.44149 | 123.27192 | 10311 ft | 315 kts | 99° |
| 2026-04-25 13:22 | 24.43853 | 123.29665 | 10564 ft | 339 kts | 99° |
| 2026-04-25 13:22 | 24.43544 | 123.32256 | 10978 ft | 352 kts | 99° |
| 2026-04-25 13:23 | 24.42910 | 123.37688 | 12248 ft | 365 kts | 99° |
| 2026-04-25 13:23 | 24.42587 | 123.40471 | 12883 ft | 370 kts | 99° |
| 2026-04-25 13:23 | 24.42260 | 123.43294 | 13518 ft | 376 kts | 99° |
| 2026-04-25 13:23 | 24.41925 | 123.46154 | 14106 ft | 381 kts | 99° |
| 2026-04-25 13:24 | 24.41583 | 123.49056 | 14664 ft | 385 kts | 99° |
| 2026-04-25 13:24 | 24.41236 | 123.51987 | 15228 ft | 390 kts | 99° |
| 2026-04-25 13:24 | 24.40978 | 123.54959 | 15774 ft | 395 kts | 91° |
| 2026-04-25 13:24 | 24.41232 | 123.57983 | 16355 ft | 401 kts | 78° |
| 2026-04-25 13:25 | 24.42055 | 123.60920 | 17006 ft | 406 kts | 66° |
| 2026-04-25 13:25 | 24.43420 | 123.63641 | 17584 ft | 409 kts | 53° |
| 2026-04-25 13:25 | 24.45128 | 123.66150 | 18140 ft | 412 kts | 51° |
| 2026-04-25 13:25 | 24.46864 | 123.68677 | 18620 ft | 416 kts | 51° |
| 2026-04-25 13:26 | 24.48610 | 123.71230 | 19083 ft | 420 kts | 51° |
| 2026-04-25 13:26 | 24.50369 | 123.73809 | 19549 ft | 424 kts | 51° |
| 2026-04-25 13:26 | 24.52145 | 123.76414 | 20032 ft | 428 kts | 51° |
| 2026-04-25 13:26 | 24.53934 | 123.79043 | 20491 ft | 432 kts | 51° |
| 2026-04-25 13:27 | 24.55738 | 123.81697 | 20960 ft | 435 kts | 51° |
| 2026-04-25 13:27 | 24.57535 | 123.84343 | 21432 ft | 439 kts | 51° |
| 2026-04-25 13:27 | 24.59395 | 123.87082 | 21903 ft | 443 kts | 52° |
| 2026-04-25 13:27 | 24.61220 | 123.89772 | 22358 ft | 447 kts | 52° |
| 2026-04-25 13:28 | 24.63089 | 123.92529 | 22819 ft | 451 kts | 52° |
| 2026-04-25 13:28 | 24.63723 | 123.93464 | 22972 ft | 452 kts | 52° |
| 2026-04-25 13:28 | 24.66871 | 123.98102 | 23688 ft | 459 kts | 52° |
| 2026-04-25 13:28 | 24.68787 | 124.00928 | 24042 ft | 463 kts | 52° |
| 2026-04-25 13:29 | 24.70717 | 124.03776 | 24388 ft | 467 kts | 52° |
| 2026-04-25 13:29 | 24.72666 | 124.06654 | 24727 ft | 471 kts | 52° |
| 2026-04-25 13:29 | 24.74628 | 124.09549 | 25063 ft | 474 kts | 52° |
| 2026-04-25 13:30 | 24.78596 | 124.15415 | 25722 ft | 481 kts | 52° |
| 2026-04-25 13:30 | 24.80598 | 124.18382 | 26042 ft | 484 kts | 52° |
| 2026-04-25 13:30 | 24.82610 | 124.21370 | 26366 ft | 488 kts | 52° |
| 2026-04-25 13:31 | 24.86677 | 124.27415 | 26993 ft | 494 kts | 52° |
| 2026-04-25 13:31 | 24.88733 | 124.30468 | 27308 ft | 498 kts | 52° |
| 2026-04-25 13:31 | 24.90803 | 124.33537 | 27630 ft | 501 kts | 52° |
| 2026-04-25 13:31 | 24.92893 | 124.36634 | 27931 ft | 504 kts | 52° |
| 2026-04-25 13:32 | 24.94986 | 124.39740 | 28230 ft | 507 kts | 52° |
| 2026-04-25 13:32 | 24.97094 | 124.42875 | 28548 ft | 510 kts | 52° |
| 2026-04-25 13:32 | 24.99209 | 124.46023 | 28833 ft | 513 kts | 52° |
| 2026-04-25 13:32 | 25.01337 | 124.49192 | 29122 ft | 516 kts | 52° |
| 2026-04-25 13:33 | 25.03450 | 124.52342 | 29410 ft | 519 kts | 52° |
| 2026-04-25 13:33 | 25.05624 | 124.55589 | 29696 ft | 521 kts | 52° |
| 2026-04-25 13:33 | 25.07756 | 124.58774 | 29966 ft | 524 kts | 52° |
| 2026-04-25 13:34 | 25.12100 | 124.65274 | 30432 ft | 529 kts | 52° |
| 2026-04-25 13:34 | 25.14292 | 124.68555 | 30651 ft | 531 kts | 52° |
| 2026-04-25 13:34 | 25.16490 | 124.71844 | 30858 ft | 533 kts | 52° |
| 2026-04-25 13:34 | 25.18697 | 124.75144 | 31059 ft | 536 kts | 53° |
| 2026-04-25 13:35 | 25.20912 | 124.78462 | 31262 ft | 538 kts | 53° |
| 2026-04-25 13:35 | 25.23128 | 124.81791 | 31486 ft | 539 kts | 53° |
| 2026-04-25 13:35 | 25.25347 | 124.85128 | 31771 ft | 539 kts | 53° |
| 2026-04-25 13:35 | 25.27569 | 124.88463 | 32040 ft | 539 kts | 53° |
| 2026-04-25 13:36 | 25.29795 | 124.91805 | 32299 ft | 540 kts | 53° |
| 2026-04-25 13:36 | 25.32022 | 124.95149 | 32561 ft | 541 kts | 53° |
| 2026-04-25 13:36 | 25.34250 | 124.98500 | 32823 ft | 541 kts | 53° |
| 2026-04-25 13:36 | 25.36477 | 125.01856 | 33086 ft | 542 kts | 54° |
| 2026-04-25 13:37 | 25.38705 | 125.05217 | 33357 ft | 542 kts | 54° |
| 2026-04-25 13:37 | 25.40936 | 125.08583 | 33622 ft | 543 kts | 54° |
| 2026-04-25 13:37 | 25.43167 | 125.11951 | 33887 ft | 543 kts | 54° |
| 2026-04-25 13:37 | 25.45396 | 125.15325 | 34136 ft | 544 kts | 54° |
| 2026-04-25 13:38 | 25.47628 | 125.18706 | 34356 ft | 544 kts | 54° |
| 2026-04-25 13:38 | 25.49862 | 125.22085 | 34586 ft | 544 kts | 54° |
| 2026-04-25 13:38 | 25.51345 | 125.24326 | 34733 ft | 544 kts | 54° |
| 2026-04-25 13:38 | 25.53579 | 125.27706 | 34959 ft | 545 kts | 54° |
| 2026-04-25 13:39 | 25.55816 | 125.31094 | 35170 ft | 545 kts | 54° |
| 2026-04-25 13:39 | 25.58049 | 125.34480 | 35378 ft | 545 kts | 54° |
| 2026-04-25 13:39 | 25.60284 | 125.37871 | 35582 ft | 545 kts | 54° |
| 2026-04-25 13:39 | 25.62521 | 125.41270 | 35778 ft | 545 kts | 54° |
| 2026-04-25 13:40 | 25.64757 | 125.44667 | 35972 ft | 545 kts | 54° |
| 2026-04-25 13:40 | 25.66990 | 125.48061 | 36159 ft | 546 kts | 54° |
| 2026-04-25 13:40 | 25.69226 | 125.51466 | 36347 ft | 546 kts | 54° |
| 2026-04-25 13:40 | 25.71460 | 125.54872 | 36527 ft | 546 kts | 54° |
| 2026-04-25 13:41 | 25.73693 | 125.58274 | 36702 ft | 546 kts | 53° |
| 2026-04-25 13:41 | 25.75927 | 125.61680 | 36877 ft | 546 kts | 54° |
| 2026-04-25 13:41 | 25.78158 | 125.65086 | 37028 ft | 546 kts | 54° |
| 2026-04-25 13:42 | 25.82611 | 125.71897 | 37059 ft | 544 kts | 54° |
| 2026-04-25 13:42 | 25.87044 | 125.78701 | 37060 ft | 544 kts | 54° |
| 2026-04-25 13:43 | 25.91473 | 125.85508 | 37062 ft | 544 kts | 54° |
| 2026-04-25 13:43 | 25.95915 | 125.92312 | 37061 ft | 544 kts | 54° |
| 2026-04-25 13:44 | 26.00349 | 125.99119 | 37063 ft | 544 kts | 54° |
| 2026-04-25 13:44 | 26.04749 | 126.05898 | 37072 ft | 544 kts | 54° |
| 2026-04-25 13:45 | 26.09205 | 126.12776 | 37078 ft | 545 kts | 54° |
| 2026-04-25 13:45 | 26.13640 | 126.19545 | 37080 ft | 545 kts | 50° |
| 2026-04-25 13:46 | 26.18970 | 126.25496 | 37081 ft | 542 kts | 40° |
| 2026-04-25 13:46 | 26.24518 | 126.31200 | 37082 ft | 543 kts | 40° |
| 2026-04-25 13:47 | 26.30059 | 126.36928 | 37081 ft | 544 kts | 40° |
| 2026-04-25 13:47 | 26.35605 | 126.42668 | 37083 ft | 544 kts | 40° |
| 2026-04-25 13:48 | 26.41153 | 126.48417 | 37082 ft | 545 kts | 40° |
| 2026-04-25 13:48 | 26.46706 | 126.54184 | 37081 ft | 545 kts | 40° |
| 2026-04-25 13:49 | 26.52265 | 126.59953 | 37081 ft | 545 kts | 40° |
| 2026-04-25 13:49 | 26.57822 | 126.65725 | 37085 ft | 546 kts | 40° |
| 2026-04-25 13:50 | 26.63375 | 126.71513 | 37085 ft | 546 kts | 40° |
| 2026-04-25 13:50 | 26.68935 | 126.77315 | 37086 ft | 546 kts | 40° |
| 2026-04-25 13:51 | 26.74453 | 126.83075 | 37083 ft | 546 kts | 40° |
| 2026-04-25 13:51 | 26.80011 | 126.88880 | 37086 ft | 547 kts | 40° |
| 2026-04-25 13:52 | 26.85566 | 126.94693 | 37088 ft | 547 kts | 41° |
| 2026-04-25 13:52 | 26.91113 | 127.00524 | 37082 ft | 547 kts | 41° |
| 2026-04-25 13:53 | 26.96668 | 127.06356 | 37080 ft | 547 kts | 40° |
| 2026-04-25 13:53 | 27.02222 | 127.12193 | 37079 ft | 548 kts | 41° |
| 2026-04-25 13:54 | 27.07778 | 127.18048 | 37078 ft | 548 kts | 41° |
| 2026-04-25 13:54 | 27.12395 | 127.22919 | 37082 ft | 548 kts | 41° |